FLX9911 SBFI-SBRP
Flight info
| Callsign | FLX9911 |
|---|---|
| Flight time | 1h 10m |
| Altitude | 35000 |
| Route | UPORU UZ65 ANSOK UM654 MIMOP |
| Aircraft | B738/M-SDE2E3FGHIRWXY/LB1 |
Departure
| Time | 2026-04-20 23:02 |
|---|---|
| Airport | Cataratas International Airport (SBFI) |
Arrival
| Time | 2026-04-21 00:12 |
|---|---|
| Airport | Leite Lopes Airport (SBRP) |
| Time | Latitude | Longitude | Altitude | Speed | Heading |
|---|---|---|---|---|---|
| 2026-04-20 22:44 | -25.59759 | -54.48772 | 797 ft | 0 kts | 221° |
| 2026-04-20 22:55 | -25.59743 | -54.48756 | 797 ft | 3 kts | 220° |
| 2026-04-20 22:55 | -25.59727 | -54.48737 | 797 ft | 4 kts | 256° |
| 2026-04-20 22:55 | -25.59732 | -54.48713 | 797 ft | 4 kts | 308° |
| 2026-04-20 22:55 | -25.59740 | -54.48702 | 797 ft | 1 kts | 311° |
| 2026-04-20 22:56 | -25.59741 | -54.48701 | 797 ft | 0 kts | 311° |
| 2026-04-20 22:58 | -25.59739 | -54.48704 | 797 ft | 2 kts | 311° |
| 2026-04-20 22:58 | -25.59723 | -54.48724 | 797 ft | 5 kts | 311° |
| 2026-04-20 22:58 | -25.59702 | -54.48751 | 797 ft | 8 kts | 310° |
| 2026-04-20 22:59 | -25.59659 | -54.48809 | 797 ft | 12 kts | 310° |
| 2026-04-20 22:59 | -25.59600 | -54.48884 | 798 ft | 14 kts | 312° |
| 2026-04-20 22:59 | -25.59502 | -54.49006 | 798 ft | 17 kts | 308° |
| 2026-04-20 22:59 | -25.59449 | -54.49045 | 798 ft | 13 kts | 2° |
| 2026-04-20 23:00 | -25.59362 | -54.49016 | 799 ft | 13 kts | 354° |
| 2026-04-20 23:00 | -25.59300 | -54.49085 | 798 ft | 14 kts | 304° |
| 2026-04-20 23:00 | -25.59235 | -54.49177 | 798 ft | 17 kts | 310° |
| 2026-04-20 23:00 | -25.59151 | -54.49287 | 795 ft | 21 kts | 310° |
| 2026-04-20 23:01 | -25.59050 | -54.49411 | 796 ft | 22 kts | 311° |
| 2026-04-20 23:01 | -25.58935 | -54.49505 | 795 ft | 14 kts | 314° |
| 2026-04-20 23:01 | -25.58951 | -54.49539 | 795 ft | 3 kts | 176° |
| 2026-04-20 23:01 | -25.59000 | -54.49478 | 795 ft | 35 kts | 130° |
| 2026-04-20 23:02 | -25.59345 | -54.49032 | 798 ft | 114 kts | 130° |
| 2026-04-20 23:02 | -25.60018 | -54.48174 | 816 ft | 178 kts | 131° |
| 2026-04-20 23:02 | -25.60929 | -54.47086 | 1433 ft | 200 kts | 133° |
| 2026-04-20 23:02 | -25.61836 | -54.45956 | 2568 ft | 188 kts | 129° |
| 2026-04-20 23:03 | -25.62709 | -54.44791 | 3253 ft | 207 kts | 129° |
| 2026-04-20 23:03 | -25.63669 | -54.43524 | 3634 ft | 220 kts | 130° |
| 2026-04-20 23:03 | -25.64673 | -54.42211 | 4138 ft | 227 kts | 130° |
| 2026-04-20 23:03 | -25.65706 | -54.40863 | 4669 ft | 235 kts | 129° |
| 2026-04-20 23:04 | -25.66471 | -54.39166 | 4888 ft | 263 kts | 97° |
| 2026-04-20 23:04 | -25.66202 | -54.37143 | 5411 ft | 275 kts | 64° |
| 2026-04-20 23:04 | -25.65037 | -54.35448 | 6150 ft | 279 kts | 45° |
| 2026-04-20 23:04 | -25.63653 | -54.33919 | 6895 ft | 283 kts | 44° |
| 2026-04-20 23:05 | -25.62245 | -54.32387 | 7617 ft | 286 kts | 44° |
| 2026-04-20 23:05 | -25.60815 | -54.30830 | 8351 ft | 290 kts | 44° |
| 2026-04-20 23:05 | -25.59369 | -54.29248 | 9086 ft | 294 kts | 44° |
| 2026-04-20 23:05 | -25.57910 | -54.27641 | 9826 ft | 297 kts | 44° |
| 2026-04-20 23:06 | -25.56433 | -54.26009 | 10380 ft | 307 kts | 44° |
| 2026-04-20 23:06 | -25.54861 | -54.24267 | 10533 ft | 331 kts | 44° |
| 2026-04-20 23:06 | -25.53199 | -54.22422 | 10704 ft | 352 kts | 44° |
| 2026-04-20 23:06 | -25.51424 | -54.20448 | 10844 ft | 371 kts | 44° |
| 2026-04-20 23:07 | -25.49567 | -54.18381 | 11117 ft | 383 kts | 44° |
| 2026-04-20 23:07 | -25.47669 | -54.16265 | 11612 ft | 388 kts | 44° |
| 2026-04-20 23:07 | -25.45763 | -54.14142 | 12240 ft | 389 kts | 45° |
| 2026-04-20 23:07 | -25.43858 | -54.12021 | 12830 ft | 390 kts | 45° |
| 2026-04-20 23:08 | -25.41934 | -54.09879 | 13365 ft | 393 kts | 45° |
| 2026-04-20 23:08 | -25.39995 | -54.07723 | 13888 ft | 396 kts | 45° |
| 2026-04-20 23:08 | -25.38041 | -54.05551 | 14345 ft | 399 kts | 45° |
| 2026-04-20 23:08 | -25.36071 | -54.03362 | 14792 ft | 403 kts | 45° |
| 2026-04-20 23:09 | -25.34109 | -54.01184 | 15219 ft | 406 kts | 44° |
| 2026-04-20 23:09 | -25.32104 | -53.98959 | 15661 ft | 410 kts | 44° |
| 2026-04-20 23:09 | -25.30063 | -53.96695 | 16101 ft | 413 kts | 44° |
| 2026-04-20 23:09 | -25.28054 | -53.94466 | 16533 ft | 416 kts | 44° |
| 2026-04-20 23:10 | -25.25981 | -53.92168 | 16955 ft | 419 kts | 44° |
| 2026-04-20 23:10 | -25.23940 | -53.89907 | 17365 ft | 422 kts | 44° |
| 2026-04-20 23:10 | -25.21877 | -53.87576 | 17787 ft | 426 kts | 48° |
| 2026-04-20 23:10 | -25.20046 | -53.84987 | 18194 ft | 429 kts | 54° |
| 2026-04-20 23:11 | -25.18360 | -53.82249 | 18572 ft | 432 kts | 56° |
| 2026-04-20 23:11 | -25.16686 | -53.79491 | 18923 ft | 435 kts | 55° |
| 2026-04-20 23:11 | -25.14952 | -53.76740 | 19279 ft | 437 kts | 54° |
| 2026-04-20 23:11 | -25.13175 | -53.73997 | 19624 ft | 440 kts | 53° |
| 2026-04-20 23:12 | -25.11370 | -53.71251 | 19968 ft | 443 kts | 53° |
| 2026-04-20 23:12 | -25.09550 | -53.68494 | 20320 ft | 445 kts | 53° |
| 2026-04-20 23:12 | -25.07718 | -53.65722 | 20650 ft | 448 kts | 53° |
| 2026-04-20 23:12 | -25.05900 | -53.62971 | 20988 ft | 451 kts | 53° |
| 2026-04-20 23:13 | -25.04048 | -53.60166 | 21305 ft | 453 kts | 53° |
| 2026-04-20 23:13 | -25.02192 | -53.57355 | 21638 ft | 456 kts | 53° |
| 2026-04-20 23:13 | -25.00319 | -53.54519 | 21961 ft | 458 kts | 53° |
| 2026-04-20 23:13 | -24.98437 | -53.51668 | 22271 ft | 461 kts | 53° |
| 2026-04-20 23:14 | -24.96550 | -53.48811 | 22581 ft | 463 kts | 53° |
| 2026-04-20 23:14 | -24.94646 | -53.45931 | 22882 ft | 466 kts | 53° |
| 2026-04-20 23:14 | -24.92737 | -53.43046 | 23174 ft | 468 kts | 53° |
| 2026-04-20 23:14 | -24.90813 | -53.40139 | 23474 ft | 470 kts | 53° |
| 2026-04-20 23:15 | -24.88878 | -53.37218 | 23730 ft | 473 kts | 53° |
| 2026-04-20 23:15 | -24.86940 | -53.34294 | 23977 ft | 475 kts | 53° |
| 2026-04-20 23:15 | -24.84987 | -53.31348 | 24199 ft | 477 kts | 53° |
| 2026-04-20 23:15 | -24.83025 | -53.28391 | 24437 ft | 479 kts | 53° |
| 2026-04-20 23:16 | -24.81055 | -53.25423 | 24669 ft | 481 kts | 53° |
| 2026-04-20 23:16 | -24.79081 | -53.22453 | 24883 ft | 483 kts | 53° |
| 2026-04-20 23:16 | -24.77092 | -53.19460 | 25094 ft | 485 kts | 53° |
| 2026-04-20 23:16 | -24.75094 | -53.16456 | 25311 ft | 487 kts | 53° |
| 2026-04-20 23:17 | -24.73088 | -53.13440 | 25536 ft | 489 kts | 53° |
| 2026-04-20 23:17 | -24.71073 | -53.10413 | 25746 ft | 491 kts | 53° |
| 2026-04-20 23:17 | -24.69055 | -53.07385 | 25960 ft | 493 kts | 53° |
| 2026-04-20 23:17 | -24.67015 | -53.04323 | 26152 ft | 495 kts | 53° |
| 2026-04-20 23:18 | -24.64986 | -53.01265 | 26357 ft | 497 kts | 53° |
| 2026-04-20 23:18 | -24.62973 | -52.98224 | 26559 ft | 499 kts | 53° |
| 2026-04-20 23:18 | -24.60926 | -52.95132 | 26760 ft | 501 kts | 53° |
| 2026-04-20 23:18 | -24.58872 | -52.92029 | 26951 ft | 502 kts | 53° |
| 2026-04-20 23:19 | -24.56814 | -52.88925 | 27130 ft | 505 kts | 53° |
| 2026-04-20 23:19 | -24.54734 | -52.85791 | 27322 ft | 506 kts | 53° |
| 2026-04-20 23:19 | -24.52661 | -52.82669 | 27508 ft | 508 kts | 53° |
| 2026-04-20 23:19 | -24.50573 | -52.79528 | 27687 ft | 509 kts | 53° |
| 2026-04-20 23:20 | -24.48479 | -52.76378 | 27886 ft | 510 kts | 53° |
| 2026-04-20 23:20 | -24.46383 | -52.73228 | 28141 ft | 510 kts | 53° |
| 2026-04-20 23:20 | -24.44313 | -52.70127 | 28440 ft | 509 kts | 53° |
| 2026-04-20 23:20 | -24.42188 | -52.66966 | 28737 ft | 509 kts | 52° |
| 2026-04-20 23:21 | -24.40106 | -52.63882 | 28976 ft | 509 kts | 52° |
| 2026-04-20 23:21 | -24.37993 | -52.60755 | 29223 ft | 510 kts | 52° |
| 2026-04-20 23:21 | -24.35888 | -52.57637 | 29513 ft | 509 kts | 53° |
| 2026-04-20 23:21 | -24.33779 | -52.54514 | 29822 ft | 509 kts | 53° |
| 2026-04-20 23:22 | -24.31673 | -52.51394 | 30120 ft | 508 kts | 53° |
| 2026-04-20 23:22 | -24.29566 | -52.48275 | 30340 ft | 509 kts | 53° |
| 2026-04-20 23:22 | -24.27465 | -52.45164 | 30565 ft | 509 kts | 53° |
| 2026-04-20 23:22 | -24.25357 | -52.42046 | 30816 ft | 508 kts | 53° |
| 2026-04-20 23:23 | -24.23249 | -52.38931 | 31056 ft | 508 kts | 53° |
| 2026-04-20 23:23 | -24.21145 | -52.35826 | 31263 ft | 509 kts | 53° |
| 2026-04-20 23:23 | -24.19031 | -52.32710 | 31491 ft | 509 kts | 53° |
| 2026-04-20 23:23 | -24.16926 | -52.29607 | 31754 ft | 508 kts | 53° |
| 2026-04-20 23:24 | -24.14815 | -52.26497 | 31996 ft | 508 kts | 53° |
| 2026-04-20 23:24 | -24.12701 | -52.23384 | 32206 ft | 509 kts | 53° |
| 2026-04-20 23:24 | -24.10612 | -52.20308 | 32408 ft | 510 kts | 53° |
| 2026-04-20 23:24 | -24.08496 | -52.17194 | 32678 ft | 509 kts | 53° |
| 2026-04-20 23:25 | -24.06374 | -52.14074 | 32923 ft | 509 kts | 53° |
| 2026-04-20 23:25 | -24.04259 | -52.10975 | 33111 ft | 510 kts | 52° |
| 2026-04-20 23:25 | -24.02102 | -52.07887 | 33307 ft | 510 kts | 52° |
| 2026-04-20 23:25 | -23.99922 | -52.04817 | 33551 ft | 510 kts | 51° |
| 2026-04-20 23:26 | -23.97738 | -52.01756 | 33789 ft | 510 kts | 51° |
| 2026-04-20 23:26 | -23.95559 | -51.98701 | 33971 ft | 511 kts | 51° |
| 2026-04-20 23:26 | -23.93373 | -51.95630 | 34155 ft | 511 kts | 51° |
| 2026-04-20 23:26 | -23.91187 | -51.92551 | 34388 ft | 510 kts | 52° |
| 2026-04-20 23:27 | -23.89017 | -51.89491 | 34616 ft | 509 kts | 52° |
| 2026-04-20 23:27 | -23.86852 | -51.86439 | 34802 ft | 509 kts | 52° |
| 2026-04-20 23:27 | -23.84678 | -51.83375 | 34953 ft | 510 kts | 52° |
| 2026-04-20 23:27 | -23.82527 | -51.80346 | 35011 ft | 512 kts | 52° |
| 2026-04-20 23:28 | -23.78243 | -51.74320 | 35023 ft | 510 kts | 52° |
| 2026-04-20 23:28 | -23.73935 | -51.68267 | 35023 ft | 507 kts | 52° |
| 2026-04-20 23:29 | -23.69638 | -51.62179 | 35033 ft | 505 kts | 52° |
| 2026-04-20 23:29 | -23.65372 | -51.56119 | 35038 ft | 503 kts | 52° |
| 2026-04-20 23:30 | -23.61102 | -51.50065 | 35041 ft | 503 kts | 52° |
| 2026-04-20 23:30 | -23.56829 | -51.44020 | 35051 ft | 503 kts | 52° |
| 2026-04-20 23:31 | -23.52548 | -51.37971 | 35055 ft | 505 kts | 52° |
| 2026-04-20 23:31 | -23.48294 | -51.31879 | 35022 ft | 504 kts | 53° |
| 2026-04-20 23:32 | -23.44122 | -51.25850 | 35051 ft | 493 kts | 53° |
| 2026-04-20 23:32 | -23.39998 | -51.19912 | 35077 ft | 492 kts | 53° |
| 2026-04-20 23:33 | -23.35866 | -51.13979 | 35078 ft | 492 kts | 53° |
| 2026-04-20 23:33 | -23.32136 | -51.07797 | 35083 ft | 492 kts | 63° |
| 2026-04-20 23:34 | -23.29064 | -51.01150 | 35076 ft | 492 kts | 64° |
| 2026-04-20 23:34 | -23.25977 | -50.94501 | 35062 ft | 493 kts | 63° |
| 2026-04-20 23:35 | -23.21242 | -50.84558 | 35048 ft | 494 kts | 63° |
| 2026-04-20 23:36 | -23.18065 | -50.77933 | 35036 ft | 495 kts | 63° |
| 2026-04-20 23:36 | -23.14885 | -50.71305 | 35037 ft | 495 kts | 63° |
| 2026-04-20 23:37 | -23.11696 | -50.64662 | 35036 ft | 495 kts | 63° |
| 2026-04-20 23:37 | -23.08505 | -50.58021 | 35032 ft | 495 kts | 63° |
| 2026-04-20 23:38 | -23.05312 | -50.51386 | 35027 ft | 495 kts | 63° |
| 2026-04-20 23:38 | -23.02125 | -50.44771 | 35038 ft | 494 kts | 63° |
| 2026-04-20 23:39 | -22.98962 | -50.38190 | 35037 ft | 494 kts | 63° |
| 2026-04-20 23:39 | -22.95787 | -50.31583 | 35039 ft | 494 kts | 63° |
| 2026-04-20 23:40 | -22.92612 | -50.24985 | 35036 ft | 493 kts | 63° |
| 2026-04-20 23:40 | -22.89431 | -50.18387 | 35042 ft | 493 kts | 63° |
| 2026-04-20 23:41 | -22.86253 | -50.11805 | 35040 ft | 493 kts | 63° |
| 2026-04-20 23:41 | -22.83070 | -50.05219 | 35041 ft | 492 kts | 63° |
| 2026-04-20 23:42 | -22.79914 | -49.98698 | 35042 ft | 492 kts | 63° |
| 2026-04-20 23:42 | -22.76732 | -49.92130 | 35045 ft | 492 kts | 63° |
| 2026-04-20 23:43 | -22.73549 | -49.85569 | 35043 ft | 492 kts | 63° |
| 2026-04-20 23:43 | -22.70349 | -49.79004 | 35051 ft | 492 kts | 63° |
| 2026-04-20 23:44 | -22.67134 | -49.72463 | 35045 ft | 492 kts | 63° |
| 2026-04-20 23:44 | -22.63917 | -49.65924 | 35051 ft | 492 kts | 63° |
| 2026-04-20 23:45 | -22.61241 | -49.60484 | 35052 ft | 492 kts | 63° |
| 2026-04-20 23:45 | -22.58023 | -49.53948 | 35050 ft | 492 kts | 63° |
| 2026-04-20 23:46 | -22.54797 | -49.47403 | 35054 ft | 492 kts | 63° |
| 2026-04-20 23:46 | -22.51569 | -49.40861 | 35053 ft | 492 kts | 63° |
| 2026-04-20 23:47 | -22.48370 | -49.34367 | 35061 ft | 492 kts | 63° |
| 2026-04-20 23:47 | -22.45158 | -49.27818 | 35064 ft | 492 kts | 63° |
| 2026-04-20 23:48 | -22.41949 | -49.21283 | 35068 ft | 492 kts | 63° |
| 2026-04-20 23:48 | -22.38725 | -49.14745 | 35074 ft | 492 kts | 62° |
| 2026-04-20 23:49 | -22.35322 | -49.08313 | 35080 ft | 492 kts | 60° |
| 2026-04-20 23:49 | -22.31869 | -49.01929 | 35074 ft | 492 kts | 61° |
| 2026-04-20 23:50 | -22.28450 | -48.95529 | 35078 ft | 492 kts | 61° |
| 2026-04-20 23:50 | -22.25034 | -48.89119 | 35071 ft | 492 kts | 61° |
| 2026-04-20 23:51 | -22.21590 | -48.82744 | 35069 ft | 492 kts | 61° |
| 2026-04-20 23:51 | -22.18135 | -48.76360 | 34912 ft | 494 kts | 61° |
| 2026-04-20 23:51 | -22.16402 | -48.73131 | 34258 ft | 500 kts | 61° |
| 2026-04-20 23:52 | -22.14668 | -48.69893 | 33590 ft | 497 kts | 61° |
| 2026-04-20 23:52 | -22.12936 | -48.66656 | 32826 ft | 498 kts | 61° |
| 2026-04-20 23:52 | -22.11206 | -48.63426 | 32089 ft | 498 kts | 61° |
| 2026-04-20 23:52 | -22.09470 | -48.60187 | 31332 ft | 498 kts | 61° |
| 2026-04-20 23:53 | -22.07729 | -48.56945 | 30527 ft | 500 kts | 61° |
| 2026-04-20 23:53 | -22.05984 | -48.53698 | 29631 ft | 502 kts | 61° |
| 2026-04-20 23:54 | -22.04540 | -48.51013 | 28857 ft | 502 kts | 61° |
| 2026-04-20 23:54 | -22.02813 | -48.47803 | 28237 ft | 497 kts | 60° |
| 2026-04-20 23:54 | -22.01102 | -48.44628 | 27919 ft | 483 kts | 60° |
| 2026-04-20 23:55 | -21.99410 | -48.41487 | 26916 ft | 488 kts | 60° |
| 2026-04-20 23:55 | -21.97702 | -48.38318 | 25984 ft | 490 kts | 60° |
| 2026-04-20 23:55 | -21.95993 | -48.35148 | 25308 ft | 487 kts | 60° |
| 2026-04-20 23:55 | -21.94296 | -48.32004 | 24586 ft | 485 kts | 60° |
| 2026-04-20 23:56 | -21.92605 | -48.28872 | 23883 ft | 482 kts | 60° |
| 2026-04-20 23:56 | -21.90928 | -48.25768 | 23100 ft | 479 kts | 60° |
| 2026-04-20 23:56 | -21.89252 | -48.22667 | 22359 ft | 474 kts | 60° |
| 2026-04-20 23:56 | -21.87604 | -48.19620 | 21660 ft | 469 kts | 60° |
| 2026-04-20 23:57 | -21.85962 | -48.16585 | 20818 ft | 467 kts | 60° |
| 2026-04-20 23:57 | -21.84353 | -48.13611 | 20196 ft | 462 kts | 60° |
| 2026-04-20 23:57 | -21.82755 | -48.10657 | 19353 ft | 453 kts | 60° |
| 2026-04-20 23:57 | -21.81200 | -48.07782 | 18694 ft | 438 kts | 60° |
| 2026-04-20 23:58 | -21.79693 | -48.04999 | 18011 ft | 425 kts | 60° |
| 2026-04-20 23:58 | -21.78208 | -48.02265 | 17348 ft | 421 kts | 60° |
| 2026-04-20 23:58 | -21.76715 | -47.99566 | 16713 ft | 418 kts | 58° |
| 2026-04-20 23:58 | -21.74786 | -47.97256 | 16059 ft | 419 kts | 37° |
| 2026-04-20 23:59 | -21.72217 | -47.95803 | 15457 ft | 418 kts | 20° |
| 2026-04-20 23:59 | -21.69376 | -47.95204 | 14815 ft | 419 kts | 4° |
| 2026-04-20 23:59 | -21.66466 | -47.95146 | 14178 ft | 417 kts | 2° |
| 2026-04-20 23:59 | -21.63564 | -47.95086 | 13500 ft | 416 kts | 2° |
| 2026-04-21 00:00 | -21.60683 | -47.95014 | 12849 ft | 413 kts | 2° |
| 2026-04-21 00:00 | -21.57815 | -47.94933 | 12216 ft | 410 kts | 2° |
| 2026-04-21 00:00 | -21.54972 | -47.94846 | 11592 ft | 407 kts | 2° |
| 2026-04-21 00:00 | -21.52187 | -47.94756 | 11357 ft | 393 kts | 2° |
| 2026-04-21 00:01 | -21.49496 | -47.94667 | 11183 ft | 380 kts | 2° |
| 2026-04-21 00:01 | -21.46898 | -47.94580 | 11014 ft | 367 kts | 2° |
| 2026-04-21 00:01 | -21.44389 | -47.94496 | 10852 ft | 356 kts | 2° |
| 2026-04-21 00:01 | -21.41950 | -47.94415 | 10705 ft | 345 kts | 2° |
| 2026-04-21 00:02 | -21.39585 | -47.94335 | 10559 ft | 335 kts | 2° |
| 2026-04-21 00:02 | -21.37296 | -47.94259 | 10423 ft | 325 kts | 2° |
| 2026-04-21 00:02 | -21.35064 | -47.94184 | 10291 ft | 316 kts | 2° |
| 2026-04-21 00:02 | -21.32891 | -47.94111 | 10160 ft | 308 kts | 2° |
| 2026-04-21 00:03 | -21.30803 | -47.94041 | 10006 ft | 301 kts | 2° |
| 2026-04-21 00:03 | -21.28709 | -47.93971 | 9687 ft | 300 kts | 2° |
| 2026-04-21 00:03 | -21.26633 | -47.93902 | 9389 ft | 298 kts | 2° |
| 2026-04-21 00:03 | -21.24563 | -47.93833 | 9087 ft | 297 kts | 2° |
| 2026-04-21 00:04 | -21.22501 | -47.93764 | 8787 ft | 296 kts | 2° |
| 2026-04-21 00:04 | -21.20444 | -47.93696 | 8492 ft | 294 kts | 2° |
| 2026-04-21 00:04 | -21.18411 | -47.93628 | 8192 ft | 293 kts | 2° |
| 2026-04-21 00:04 | -21.16379 | -47.93560 | 7915 ft | 290 kts | 2° |
| 2026-04-21 00:05 | -21.14359 | -47.93493 | 7600 ft | 289 kts | 2° |
| 2026-04-21 00:05 | -21.12344 | -47.93426 | 7276 ft | 290 kts | 1° |
| 2026-04-21 00:05 | -21.10330 | -47.93359 | 6968 ft | 289 kts | 2° |
| 2026-04-21 00:05 | -21.08544 | -47.93300 | 6712 ft | 288 kts | 2° |
| 2026-04-21 00:06 | -21.06554 | -47.93233 | 6409 ft | 283 kts | 2° |
| 2026-04-21 00:06 | -21.04608 | -47.93169 | 6098 ft | 276 kts | 2° |
| 2026-04-21 00:06 | -21.02705 | -47.93106 | 5828 ft | 272 kts | 2° |
| 2026-04-21 00:06 | -21.00884 | -47.92790 | 5697 ft | 260 kts | 25° |
| 2026-04-21 00:07 | -20.99510 | -47.91656 | 5598 ft | 243 kts | 52° |
| 2026-04-21 00:07 | -20.98712 | -47.90167 | 5490 ft | 226 kts | 71° |
| 2026-04-21 00:07 | -20.98246 | -47.88618 | 5382 ft | 213 kts | 75° |
| 2026-04-21 00:07 | -20.97826 | -47.87066 | 5063 ft | 214 kts | 76° |
| 2026-04-21 00:08 | -20.97429 | -47.85618 | 4981 ft | 200 kts | 76° |
| 2026-04-21 00:08 | -20.97162 | -47.84458 | 4956 ft | 196 kts | 87° |
| 2026-04-21 00:08 | -20.97495 | -47.83075 | 4888 ft | 195 kts | 131° |
| 2026-04-21 00:08 | -20.98600 | -47.82335 | 4720 ft | 186 kts | 162° |
| 2026-04-21 00:09 | -20.99778 | -47.81856 | 4445 ft | 176 kts | 155° |
| 2026-04-21 00:09 | -21.00867 | -47.81379 | 4224 ft | 164 kts | 164° |
| 2026-04-21 00:09 | -21.01921 | -47.81070 | 4061 ft | 149 kts | 164° |
| 2026-04-21 00:09 | -21.02917 | -47.80760 | 3854 ft | 149 kts | 163° |
| 2026-04-21 00:10 | -21.03895 | -47.80449 | 3656 ft | 144 kts | 162° |
| 2026-04-21 00:10 | -21.04847 | -47.80145 | 3463 ft | 142 kts | 162° |
| 2026-04-21 00:10 | -21.05796 | -47.79842 | 3270 ft | 142 kts | 161° |
| 2026-04-21 00:10 | -21.06741 | -47.79540 | 3070 ft | 141 kts | 161° |
| 2026-04-21 00:11 | -21.07673 | -47.79242 | 2898 ft | 142 kts | 162° |
| 2026-04-21 00:11 | -21.08636 | -47.78935 | 2720 ft | 147 kts | 162° |
| 2026-04-21 00:11 | -21.09627 | -47.78619 | 2502 ft | 148 kts | 162° |
| 2026-04-21 00:11 | -21.10633 | -47.78298 | 2305 ft | 153 kts | 162° |
| 2026-04-21 00:12 | -21.11651 | -47.77972 | 2091 ft | 153 kts | 161° |
| 2026-04-21 00:12 | -21.12678 | -47.77642 | 1838 ft | 154 kts | 161° |
| 2026-04-21 00:12 | -21.13623 | -47.77339 | 1802 ft | 119 kts | 163° |
| 2026-04-21 00:12 | -21.14180 | -47.77164 | 1801 ft | 36 kts | 163° |
| 2026-04-21 00:13 | -21.14300 | -47.77182 | 1804 ft | 14 kts | 275° |
| 2026-04-21 00:13 | -21.14278 | -47.77276 | 1804 ft | 13 kts | 295° |
| 2026-04-21 00:13 | -21.14208 | -47.77328 | 1804 ft | 13 kts | 339° |
| 2026-04-21 00:13 | -21.14125 | -47.77357 | 1802 ft | 12 kts | 343° |
| 2026-04-21 00:14 | -21.14038 | -47.77384 | 1802 ft | 15 kts | 343° |
| 2026-04-21 00:14 | -21.13924 | -47.77420 | 1804 ft | 18 kts | 343° |
| 2026-04-21 00:14 | -21.13862 | -47.77485 | 1804 ft | 12 kts | 270° |
| 2026-04-21 00:14 | -21.13837 | -47.77542 | 1802 ft | 4 kts | 280° |
| 2026-04-21 00:15 | -21.13841 | -47.77574 | 1804 ft | 4 kts | 257° |
| 2026-04-21 00:15 | -21.13848 | -47.77604 | 1800 ft | 1 kts | 253° |
| 2026-04-21 00:15 | -21.13849 | -47.77606 | 1800 ft | 0 kts | 253° |